Time;durP1;ratioP1;P1;durP2;ratioP2;P2;SDS_P1;SDS_P2;PMS_P1;PMS_P2;Temp;Humidity;BMP_temperature;BMP_pressure;BME280_temperature;BME280_humidity;BME280_pressure;Samples;Min_cycle;Max_cycle;Signal;HPM_P1;HPM_P2
2021/09/19 00:02:06;;;;;;;6.22;4.35;;;;;;;21.91;44.76;101183.59;4975129;28;20077;-61
2021/09/19 00:04:31;;;;;;;6.60;4.28;;;;;;;21.84;45.34;101178.03;4974005;28;20066;-61
2021/09/19 00:06:57;;;;;;;6.97;5.35;;;;;;;21.79;45.63;101174.19;4975113;28;20086;-61
2021/09/19 00:09:22;;;;;;;9.15;6.20;;;;;;;21.76;45.94;101180.88;4974186;28;20468;-61
2021/09/19 00:11:47;;;;;;;9.85;6.93;;;;;;;21.75;46.18;101178.34;4974015;28;20483;-61
2021/09/19 00:14:14;;;;;;;10.60;7.63;;;;;;;21.73;45.81;101174.97;4974943;28;20365;-61
2021/09/19 00:16:40;;;;;;;11.30;7.57;;;;;;;21.72;46.33;101184.19;4975259;28;20035;-61
2021/09/19 00:19:05;;;;;;;12.10;7.63;;;;;;;21.69;45.71;101170.94;4975558;28;20431;-61
2021/09/19 00:21:31;;;;;;;9.73;6.40;;;;;;;21.67;46.17;101164.81;4975594;28;20031;-61
2021/09/19 00:23:56;;;;;;;10.40;5.80;;;;;;;21.66;46.27;101166.72;4975095;28;20023;-61
2021/09/19 00:26:21;;;;;;;9.75;6.93;;;;;;;21.66;46.12;101174.06;4975616;28;20487;-61
2021/09/19 00:28:47;;;;;;;7.75;5.65;;;;;;;21.64;45.62;101170.66;4975333;28;20387;-61
2021/09/19 00:31:12;;;;;;;7.68;5.47;;;;;;;21.59;45.97;101162.22;4975307;28;20027;-61
2021/09/19 00:33:38;;;;;;;6.90;4.80;;;;;;;21.59;45.41;101162.22;4973973;28;20026;-61
2021/09/19 00:36:04;;;;;;;7.50;5.38;;;;;;;21.55;46.44;101159.06;4975506;28;20030;-61
2021/09/19 00:38:29;;;;;;;9.20;5.10;;;;;;;21.44;46.06;101149.47;4975010;28;20023;-61
2021/09/19 00:40:54;;;;;;;9.05;5.30;;;;;;;21.48;46.04;101160.84;4975524;28;20038;-61
2021/09/19 00:43:20;;;;;;;8.05;5.38;;;;;;;21.42;45.95;101167.91;4975284;28;20486;-61
2021/09/19 00:45:45;;;;;;;8.35;5.65;;;;;;;21.39;45.90;101154.66;4975767;28;20054;-61
2021/09/19 00:48:10;;;;;;;5.75;4.78;;;;;;;21.37;46.40;101159.47;4975433;28;20085;-61
2021/09/19 00:50:36;;;;;;;8.07;4.55;;;;;;;21.34;45.78;101156.28;4975035;28;20431;-61
2021/09/19 00:53:02;;;;;;;11.73;5.30;;;;;;;21.31;45.76;101160.22;4975663;28;20032;-61
2021/09/19 00:55:27;;;;;;;7.25;5.35;;;;;;;21.29;45.88;101161.44;4974804;28;20464;-61
2021/09/19 00:57:54;;;;;;;8.73;4.43;;;;;;;21.25;46.10;101155.53;4974810;28;20151;-61
2021/09/19 01:00:28;;;;;;;9.00;5.38;;;;;;;21.24;46.26;101159.31;4975748;28;20058;-61
2021/09/19 01:02:54;;;;;;;9.48;5.78;;;;;;;21.21;45.77;101159.69;4975043;28;20046;-61
2021/09/19 01:05:21;;;;;;;7.85;5.07;;;;;;;21.19;46.15;101166.38;4975383;28;20038;-61
2021/09/19 01:07:47;;;;;;;6.43;4.63;;;;;;;21.16;46.25;101164.84;4976602;28;20114;-61
2021/09/19 01:10:14;;;;;;;8.75;5.32;;;;;;;21.13;46.10;101167.97;4978056;28;20023;-61
2021/09/19 01:12:40;;;;;;;8.57;5.97;;;;;;;21.10;46.47;101157.44;4979103;28;20035;-61
2021/09/19 01:15:06;;;;;;;10.13;6.28;;;;;;;21.05;45.95;101156.28;4979227;28;20079;-61
2021/09/19 01:17:32;;;;;;;7.47;5.95;;;;;;;21.00;45.96;101148.66;4978620;28;20030;-61
2021/09/19 01:19:58;;;;;;;8.52;5.75;;;;;;;21.04;45.80;101152.72;4978130;28;20050;-62
2021/09/19 01:22:32;;;;;;;12.95;6.53;;;;;;;21.02;46.33;101149.31;4978562;28;20022;-61
2021/09/19 01:24:58;;;;;;;9.48;6.15;;;;;;;21.02;46.46;101160.22;4978018;28;20376;-61
2021/09/19 01:27:24;;;;;;;8.27;5.85;;;;;;;21.01;46.25;101154.97;4978935;28;20031;-61
2021/09/19 01:29:49;;;;;;;6.95;4.40;;;;;;;20.99;46.00;101147.00;4977753;28;20097;-61
2021/09/19 01:32:18;;;;;;;7.50;4.25;;;;;;;20.96;46.18;101154.69;4979072;28;20030;-61
2021/09/19 01:34:43;;;;;;;11.63;5.35;;;;;;;20.91;46.10;101152.50;4978871;28;20077;-61
2021/09/19 01:37:09;;;;;;;7.03;4.55;;;;;;;20.89;46.33;101140.97;4978898;28;20110;-61
2021/09/19 01:39:34;;;;;;;8.32;4.60;;;;;;;20.86;46.49;101144.91;4977419;28;20222;-61
2021/09/19 01:41:59;;;;;;;7.68;3.55;;;;;;;20.77;46.59;101140.59;4978770;28;20030;-61
2021/09/19 01:44:25;;;;;;;5.75;4.13;;;;;;;20.80;45.82;101142.09;4978557;28;20023;-61
2021/09/19 01:46:50;;;;;;;10.43;5.20;;;;;;;20.78;46.45;101145.03;4978574;28;20436;-61
2021/09/19 01:49:15;;;;;;;6.28;4.47;;;;;;;20.77;45.96;101145.22;4978232;28;20037;-61
2021/09/19 01:51:41;;;;;;;4.13;3.33;;;;;;;20.75;46.55;101141.81;4977256;28;20062;-61
2021/09/19 01:54:06;;;;;;;5.32;3.90;;;;;;;20.72;46.22;101150.34;4977647;28;20035;-61
2021/09/19 01:56:32;;;;;;;5.88;4.00;;;;;;;20.69;46.39;101145.28;4978381;28;20084;-61
2021/09/19 01:58:57;;;;;;;7.35;4.80;;;;;;;20.68;46.47;101146.34;4977814;28;20098;-61
2021/09/19 02:01:23;;;;;;;3.78;3.13;;;;;;;20.65;46.57;101135.81;4978210;28;20058;-61
2021/09/19 02:03:53;;;;;;;2.78;2.05;;;;;;;20.65;46.24;101141.25;4978087;28;20553;-61
2021/09/19 02:06:20;;;;;;;4.65;2.60;;;;;;;20.61;46.11;101135.34;4978349;28;20039;-61
2021/09/19 02:08:46;;;;;;;4.45;3.42;;;;;;;20.52;46.29;101130.19;4978245;28;20034;-61
2021/09/19 02:11:13;;;;;;;7.28;4.18;;;;;;;20.53;46.45;101138.16;4977596;28;20027;-61
2021/09/19 02:13:40;;;;;;;6.13;4.45;;;;;;;20.52;46.55;101135.63;4976558;28;20034;-61
2021/09/19 02:16:06;;;;;;;5.38;3.40;;;;;;;20.53;46.60;101137.31;4977706;28;20037;-61
2021/09/19 02:18:32;;;;;;;3.83;2.75;;;;;;;20.52;46.21;101132.91;4977940;28;20092;-61
2021/09/19 02:20:58;;;;;;;4.18;3.15;;;;;;;20.48;46.05;101134.28;4977884;28;20027;-61
2021/09/19 02:23:23;;;;;;;4.47;3.55;;;;;;;20.45;45.91;101129.22;4976467;28;20023;-61
2021/09/19 02:25:49;;;;;;;7.72;5.43;;;;;;;20.42;46.54;101132.31;4977752;28;20038;-61
2021/09/19 02:28:15;;;;;;;8.77;4.65;;;;;;;20.39;46.57;101125.38;4977550;28;20019;-62
2021/09/19 02:30:40;;;;;;;6.57;5.07;;;;;;;20.41;46.86;101134.19;4976335;28;20029;-61
2021/09/19 02:33:06;;;;;;;6.43;4.32;;;;;;;20.38;46.39;101131.00;4977741;28;20027;-61
2021/09/19 02:35:31;;;;;;;5.38;4.03;;;;;;;20.38;46.54;101128.28;4977077;28;20034;-61
2021/09/19 02:37:56;;;;;;;5.63;4.10;;;;;;;20.35;46.32;101124.06;4977452;28;20511;-61
2021/09/19 02:40:22;;;;;;;7.85;5.07;;;;;;;20.28;46.30;101120.38;4977463;28;20369;-61
2021/09/19 02:42:49;;;;;;;6.68;4.68;;;;;;;20.32;46.85;101140.75;4977413;28;20110;-61
2021/09/19 02:45:14;;;;;;;9.57;4.53;;;;;;;20.24;46.46;101128.06;4976111;28;20037;-62
2021/09/19 02:47:40;;;;;;;6.53;4.47;;;;;;;20.26;46.45;101126.03;4977242;28;20102;-61
2021/09/19 02:50:07;;;;;;;7.32;5.15;;;;;;;20.26;47.09;101133.31;4977143;28;20061;-61
2021/09/19 02:52:32;;;;;;;6.18;4.30;;;;;;;20.24;46.64;101113.56;4977815;28;20082;-61
2021/09/19 02:54:58;;;;;;;9.25;4.80;;;;;;;20.23;46.42;101125.50;4976440;28;20035;-61
2021/09/19 02:57:23;;;;;;;7.28;4.85;;;;;;;20.19;46.60;101116.84;4976987;28;20492;-61
2021/09/19 02:59:48;;;;;;;7.00;5.30;;;;;;;20.16;47.04;101114.50;4977153;28;20026;-61
2021/09/19 03:02:14;;;;;;;8.20;5.03;;;;;;;20.15;46.24;101117.41;4976985;28;20026;-61
2021/09/19 03:04:39;;;;;;;9.48;5.43;;;;;;;20.14;46.99;101111.13;4976099;28;20058;-61
2021/09/19 03:07:05;;;;;;;7.72;5.03;;;;;;;20.18;46.67;101117.88;4976853;28;20053;-61
2021/09/19 03:09:30;;;;;;;7.40;4.65;;;;;;;20.12;46.58;101107.75;4976779;28;20026;-61
2021/09/19 03:11:55;;;;;;;7.28;3.50;;;;;;;20.16;46.92;101114.50;4976601;28;20510;-61
2021/09/19 03:14:21;;;;;;;2.85;2.45;;;;;;;20.15;46.72;101112.84;4976911;28;20062;-61
2021/09/19 03:16:46;;;;;;;7.10;2.38;;;;;;;20.11;46.78;101116.09;4976730;28;20054;-61
2021/09/19 03:19:11;;;;;;;6.03;3.78;;;;;;;20.09;46.37;101119.00;4977351;28;20123;-61
2021/09/19 03:21:37;;;;;;;4.63;3.05;;;;;;;19.99;47.16;101109.41;4976993;28;20062;-61
2021/09/19 03:24:02;;;;;;;3.42;2.60;;;;;;;20.01;46.80;101121.78;4976871;28;20031;-61
2021/09/19 03:26:28;;;;;;;5.38;2.88;;;;;;;19.96;46.76;101107.88;4976131;28;20027;-61
2021/09/19 03:28:53;;;;;;;4.93;3.70;;;;;;;19.95;47.14;101111.66;4975872;28;20030;-61
2021/09/19 03:31:19;;;;;;;5.97;3.50;;;;;;;19.93;47.27;101113.72;4975637;28;20027;-61
2021/09/19 03:33:44;;;;;;;5.43;3.40;;;;;;;19.93;46.78;101116.44;4976607;28;20440;-61
2021/09/19 03:36:09;;;;;;;4.45;3.08;;;;;;;19.91;46.75;101114.88;4976871;28;20082;-61
2021/09/19 03:38:35;;;;;;;3.88;3.20;;;;;;;19.84;46.90;101101.19;4975108;28;20109;-61
2021/09/19 03:41:00;;;;;;;5.25;3.75;;;;;;;19.80;47.37;101099.88;4976620;28;20026;-61
2021/09/19 03:43:26;;;;;;;6.32;3.60;;;;;;;19.83;47.07;101109.53;4976785;28;20042;-61
2021/09/19 03:45:51;;;;;;;7.40;4.68;;;;;;;19.85;46.75;101111.03;4976489;28;20384;-61
2021/09/19 03:48:17;;;;;;;4.97;3.88;;;;;;;19.84;46.95;101114.78;4976742;28;20027;-61
2021/09/19 03:50:43;;;;;;;7.40;4.03;;;;;;;19.85;47.09;101121.09;4976230;28;20026;-61
2021/09/19 03:53:08;;;;;;;7.65;4.35;;;;;;;19.84;47.08;101125.66;4976514;28;20535;-61
2021/09/19 03:55:34;;;;;;;5.28;3.95;;;;;;;19.80;46.93;101113.47;4975463;28;20046;-61
2021/09/19 03:58:00;;;;;;;4.28;3.20;;;;;;;19.82;47.19;101122.25;4975897;28;20047;-61
2021/09/19 04:00:25;;;;;;;3.95;2.45;;;;;;;19.79;47.38;101121.81;4975083;28;20054;-61
2021/09/19 04:02:51;;;;;;;3.42;3.00;;;;;;;19.75;46.96;101124.03;4976479;28;20033;-61
2021/09/19 04:05:16;;;;;;;6.32;3.90;;;;;;;19.69;46.90;101117.44;4975512;28;20102;-61
2021/09/19 04:07:42;;;;;;;6.05;3.90;;;;;;;19.69;47.02;101116.59;4976687;28;20395;-61
2021/09/19 04:10:08;;;;;;;7.03;4.00;;;;;;;19.61;46.80;101108.50;4975000;28;20471;-61
2021/09/19 04:12:34;;;;;;;6.70;4.72;;;;;;;19.66;47.07;101111.53;4976624;28;20027;-61
2021/09/19 04:14:59;;;;;;;7.47;4.45;;;;;;;19.64;47.26;101109.00;4975846;28;20030;-61
2021/09/19 04:17:25;;;;;;;7.75;4.32;;;;;;;19.69;47.00;101117.44;4975663;28;20031;-61
2021/09/19 04:19:50;;;;;;;6.00;4.18;;;;;;;19.75;47.53;101121.31;4976253;28;20019;-61
2021/09/19 04:22:16;;;;;;;4.70;3.45;;;;;;;19.76;47.06;101128.47;4976535;28;20031;-61
2021/09/19 04:24:41;;;;;;;3.97;3.20;;;;;;;19.75;46.99;101126.75;4976497;28;20030;-61
2021/09/19 04:27:07;;;;;;;7.00;3.58;;;;;;;19.73;47.30;101126.94;4975958;28;20037;-61
2021/09/19 04:29:34;;;;;;;4.85;3.88;;;;;;;19.74;47.24;101122.34;4976425;28;20035;-61
2021/09/19 04:32:00;;;;;;;5.65;3.95;;;;;;;19.71;47.04;101119.97;4975368;28;20023;-61
2021/09/19 04:34:25;;;;;;;5.38;3.10;;;;;;;19.74;46.99;101125.06;4975356;28;20041;-61
2021/09/19 04:36:50;;;;;;;5.13;3.50;;;;;;;19.72;47.22;101121.69;4976051;28;20405;-61
2021/09/19 04:39:16;;;;;;;5.50;3.75;;;;;;;19.75;47.05;101132.19;4975061;28;20034;-61
2021/09/19 04:41:41;;;;;;;6.45;3.70;;;;;;;19.75;47.64;101132.19;4976285;28;20361;-61
2021/09/19 04:44:07;;;;;;;4.18;3.00;;;;;;;19.69;47.15;101120.16;4979127;28;20023;-61
2021/09/19 04:46:32;;;;;;;5.95;4.45;;;;;;;19.74;47.41;101131.34;4978764;28;20472;-61
2021/09/19 04:48:57;;;;;;;6.88;4.40;;;;;;;19.73;47.24;101135.09;4978734;28;20478;-61
2021/09/19 04:51:23;;;;;;;6.13;3.33;;;;;;;19.70;46.90;101124.59;4979465;28;20472;-61
2021/09/19 04:53:49;;;;;;;5.10;3.13;;;;;;;19.69;46.90;101122.88;4978799;28;20540;-61
2021/09/19 04:56:14;;;;;;;5.15;3.35;;;;;;;19.65;46.94;101115.28;4980209;28;20364;-61
2021/09/19 04:58:40;;;;;;;4.32;3.13;;;;;;;19.67;47.04;101118.66;4979286;28;20494;-61
2021/09/19 05:01:06;;;;;;;4.32;3.00;;;;;;;19.66;47.06;101127.84;4982514;28;20067;-61
2021/09/19 05:03:31;;;;;;;4.78;3.17;;;;;;;19.64;47.27;101125.31;4990004;28;20057;-61
2021/09/19 05:05:57;;;;;;;4.93;3.30;;;;;;;19.64;47.01;101119.03;4997508;28;20108;-61
2021/09/19 05:08:22;;;;;;;3.28;2.75;;;;;;;19.63;46.85;101117.31;4998350;28;20469;-61
2021/09/19 05:10:48;;;;;;;4.40;3.20;;;;;;;19.64;47.05;101113.59;5000261;28;20021;-61
2021/09/19 05:13:14;;;;;;;6.78;3.05;;;;;;;19.58;47.40;101114.31;5001584;28;20022;-61
2021/09/19 05:15:39;;;;;;;4.20;2.65;;;;;;;19.61;46.95;101125.66;4994676;28;20029;-61
2021/09/19 05:18:04;;;;;;;3.08;2.70;;;;;;;19.59;47.52;101124.16;4997117;28;20022;-61
2021/09/19 05:20:30;;;;;;;3.25;2.72;;;;;;;19.57;46.77;101128.94;4993630;28;20019;-60
2021/09/19 05:22:55;;;;;;;5.60;3.80;;;;;;;19.53;47.11;101120.28;5000520;28;20168;-60
2021/09/19 05:25:20;;;;;;;5.10;3.53;;;;;;;19.55;47.06;101120.94;4996560;28;20057;-60
2021/09/19 05:27:46;;;;;;;4.95;3.55;;;;;;;19.55;47.46;101120.09;5000474;28;20034;-60
2021/09/19 05:30:12;;;;;;;6.38;3.10;;;;;;;19.62;47.73;101121.09;4997890;28;20010;-60
2021/09/19 05:32:37;;;;;;;7.18;3.35;;;;;;;19.66;47.53;101122.41;4998813;28;20045;-60
2021/09/19 05:35:04;;;;;;;4.18;3.05;;;;;;;19.70;47.57;101124.59;4999411;28;20112;-61
2021/09/19 05:37:30;;;;;;;6.10;3.67;;;;;;;19.74;47.90;101125.06;4994690;28;20454;-60
2021/09/19 05:39:55;;;;;;;5.93;3.40;;;;;;;19.76;47.72;101126.56;4988109;28;20104;-60
2021/09/19 05:42:20;;;;;;;3.70;3.05;;;;;;;19.82;48.41;101119.53;4996078;28;20026;-61
2021/09/19 05:44:46;;;;;;;4.07;2.88;;;;;;;19.87;47.80;101125.31;4998111;28;20037;-61
2021/09/19 05:47:11;;;;;;;5.03;2.97;;;;;;;19.90;47.98;101127.66;4998232;28;20076;-61
2021/09/19 05:49:36;;;;;;;4.90;3.08;;;;;;;19.96;47.26;101129.63;5000291;28;20128;-61
2021/09/19 05:52:02;;;;;;;4.63;3.30;;;;;;;20.02;47.85;101139.78;4998868;28;20025;-61
2021/09/19 05:54:27;;;;;;;3.58;2.90;;;;;;;20.06;48.10;101129.41;5000285;28;20105;-60
2021/09/19 05:56:53;;;;;;;3.05;2.47;;;;;;;20.14;47.82;101126.59;5006318;28;20040;-60
2021/09/19 05:59:18;;;;;;;5.07;2.70;;;;;;;20.18;48.01;101128.75;5015396;28;20050;-61
2021/09/19 06:01:44;;;;;;;6.20;2.90;;;;;;;20.26;47.90;101136.91;5016055;28;20030;-60
2021/09/19 06:04:09;;;;;;;6.47;3.08;;;;;;;20.35;47.46;101134.09;5011723;28;20084;-61
2021/09/19 06:06:34;;;;;;;3.33;2.70;;;;;;;20.42;47.86;101124.16;4997780;28;20487;-60
2021/09/19 06:09:00;;;;;;;5.35;2.78;;;;;;;20.58;47.39;101137.59;4997143;28;20050;-60
2021/09/19 06:11:25;;;;;;;4.90;3.10;;;;;;;20.67;47.59;101136.47;4997446;28;20022;-61
2021/09/19 06:13:50;;;;;;;3.72;3.17;;;;;;;20.76;47.32;101132.63;4997506;28;20521;-61
2021/09/19 06:16:16;;;;;;;6.53;2.33;;;;;;;20.95;47.22;101140.22;4997413;28;20026;-61
2021/09/19 06:18:41;;;;;;;3.17;2.55;;;;;;;21.07;47.17;101138.75;4996925;28;20105;-60
2021/09/19 06:21:06;;;;;;;4.88;3.28;;;;;;;21.17;47.86;101128.41;5014893;28;20025;-61
2021/09/19 06:23:32;;;;;;;4.03;2.63;;;;;;;21.33;47.50;101130.88;5016589;28;20034;-61
2021/09/19 06:25:58;;;;;;;5.78;3.00;;;;;;;21.43;46.64;101134.16;5016451;28;20053;-60
2021/09/19 06:28:24;;;;;;;4.95;2.38;;;;;;;21.55;46.72;101133.66;5014955;28;20025;-61
2021/09/19 06:30:50;;;;;;;4.20;2.67;;;;;;;21.65;47.43;101131.47;5015521;28;20441;-61
2021/09/19 06:33:15;;;;;;;5.43;2.40;;;;;;;21.76;46.39;101136.41;5015578;28;20026;-61
2021/09/19 06:35:41;;;;;;;4.22;2.10;;;;;;;21.86;46.74;101134.22;5015477;28;20025;-60
2021/09/19 06:38:07;;;;;;;3.78;2.08;;;;;;;21.96;47.38;101132.03;5015492;28;20443;-61
2021/09/19 06:40:33;;;;;;;3.83;2.70;;;;;;;22.09;46.66;101132.13;5015318;28;20030;-61
2021/09/19 06:42:58;;;;;;;2.95;2.47;;;;;;;22.23;47.13;101133.94;5010466;28;20022;-61
2021/09/19 06:45:23;;;;;;;3.35;2.00;;;;;;;22.35;46.04;101135.09;4995870;28;20101;-61
2021/09/19 06:47:49;;;;;;;3.30;2.33;;;;;;;22.47;47.00;101128.00;4995231;28;20081;-62
2021/09/19 06:50:14;;;;;;;3.03;1.95;;;;;;;22.57;46.84;101130.41;4995346;28;20022;-61
2021/09/19 06:52:40;;;;;;;5.97;2.05;;;;;;;22.66;46.09;101118.31;4995459;28;20029;-61
2021/09/19 06:55:06;;;;;;;5.57;2.17;;;;;;;22.75;46.31;101127.19;4995547;28;20069;-61
2021/09/19 06:57:31;;;;;;;2.95;1.83;;;;;;;22.81;46.08;101121.75;4995316;28;20569;-62
2021/09/19 06:59:57;;;;;;;4.05;1.88;;;;;;;22.89;45.90;101129.78;4995248;28;20362;-61
2021/09/19 07:02:22;;;;;;;2.40;1.80;;;;;;;23.00;46.04;101133.84;4994972;28;20463;-61
2021/09/19 07:04:48;;;;;;;6.65;1.90;;;;;;;23.13;46.26;101131.19;4995079;28;20056;-61
2021/09/19 07:07:14;;;;;;;1.70;1.60;;;;;;;23.26;46.40;101133.97;4994865;28;20023;-61
2021/09/19 07:09:40;;;;;;;2.22;1.38;;;;;;;23.30;46.34;101128.94;4995206;28;20034;-61
2021/09/19 07:12:06;;;;;;;3.38;1.65;;;;;;;23.43;45.35;101132.59;4994217;28;20172;-61
2021/09/19 07:14:31;;;;;;;2.58;1.40;;;;;;;23.55;45.22;101147.34;5010651;28;20489;-62
2021/09/19 07:16:57;;;;;;;2.80;1.10;;;;;;;23.62;45.90;101131.78;5014594;28;20041;-61
2021/09/19 07:19:22;;;;;;;1.35;1.10;;;;;;;23.76;46.05;101138.97;5014570;28;20026;-61
2021/09/19 07:21:48;;;;;;;2.10;1.33;;;;;;;23.87;45.41;101142.16;5014761;28;20109;-61
2021/09/19 07:24:13;;;;;;;2.00;1.35;;;;;;;24.00;46.02;101150.41;5014683;28;20030;-61
2021/09/19 07:26:38;;;;;;;2.47;1.00;;;;;;;24.09;44.81;101158.22;5013590;28;20022;-61
2021/09/19 07:29:04;;;;;;;2.63;1.15;;;;;;;24.21;45.77;101152.94;5015014;28;20478;-62
2021/09/19 07:31:29;;;;;;;2.15;1.10;;;;;;;24.37;45.55;101163.50;5014627;28;20478;-61
2021/09/19 07:33:55;;;;;;;4.45;1.48;;;;;;;24.45;44.80;101155.06;5014867;28;20430;-59
2021/09/19 07:36:25;;;;;;;3.50;1.42;;;;;;;24.56;45.16;101164.53;5002584;28;20057;-59
2021/09/19 07:38:51;;;;;;;1.85;1.10;;;;;;;24.63;44.62;101163.47;4994841;28;20030;-59
2021/09/19 07:41:16;;;;;;;4.13;1.30;;;;;;;24.71;44.73;101155.03;4994834;28;20026;-60
2021/09/19 07:43:42;;;;;;;1.48;1.30;;;;;;;24.84;44.54;101163.28;4993672;28;20031;-59
2021/09/19 07:46:07;;;;;;;3.72;1.35;;;;;;;24.94;44.71;101172.94;4993463;28;20037;-59
2021/09/19 07:48:33;;;;;;;4.63;1.27;;;;;;;25.07;44.50;101167.44;4994566;28;20451;-60
2021/09/19 07:50:58;;;;;;;1.40;1.20;;;;;;;25.24;44.18;101168.63;4994413;28;20110;-59
2021/09/19 07:53:24;;;;;;;2.50;1.23;;;;;;;25.40;43.88;101168.16;4993587;28;20077;-60
2021/09/19 07:55:50;;;;;;;1.48;0.93;;;;;;;25.59;43.64;101170.00;4993315;28;20059;-59
2021/09/19 07:58:16;;;;;;;1.63;0.85;;;;;;;25.73;43.60;101170.75;4998733;28;20046;-59
2021/09/19 08:00:41;;;;;;;1.33;1.15;;;;;;;25.88;43.38;101168.56;5016184;28;20437;-60
2021/09/19 08:03:07;;;;;;;1.45;0.75;;;;;;;26.03;43.20;101172.66;5003352;28;20034;-60
2021/09/19 08:05:32;;;;;;;1.60;0.90;;;;;;;26.25;43.47;101175.06;4995844;28;20069;-60
2021/09/19 08:07:57;;;;;;;0.93;0.77;;;;;;;26.43;43.54;101181.50;4995386;28;20445;-59
2021/09/19 08:10:23;;;;;;;2.38;1.20;;;;;;;26.53;42.76;101184.56;4995872;28;20037;-60
2021/09/19 08:12:48;;;;;;;2.30;1.15;;;;;;;26.64;43.11;101177.47;4995918;28;20037;-59
2021/09/19 08:15:16;;;;;;;2.22;0.80;;;;;;;26.75;42.54;101190.47;4995543;28;20027;-60
2021/09/19 08:17:43;;;;;;;0.90;0.90;;;;;;;26.89;42.89;101191.22;4998199;28;20088;-60
2021/09/19 08:20:11;;;;;;;1.98;1.33;;;;;;;27.00;42.64;101187.72;4999566;28;20053;-60
2021/09/19 08:22:36;;;;;;;6.25;1.00;;;;;;;27.21;42.51;101187.28;4999321;28;20479;-60
2021/09/19 08:25:06;;;;;;;2.03;0.80;;;;;;;27.40;41.96;101185.34;4999326;28;20105;-59
2021/09/19 08:27:33;;;;;;;2.92;1.08;;;;;;;27.60;41.60;101191.47;4997538;28;20109;-59
2021/09/19 08:29:58;;;;;;;1.40;1.00;;;;;;;27.76;41.23;101188.09;4998398;28;20407;-60
2021/09/19 08:32:24;;;;;;;1.63;0.85;;;;;;;27.95;41.83;101195.22;4998713;28;20027;-60
2021/09/19 08:34:50;;;;;;;0.95;0.82;;;;;;;28.19;41.13;101197.03;4997551;28;20118;-59
2021/09/19 08:37:15;;;;;;;1.63;0.90;;;;;;;28.42;41.17;101211.91;4998395;28;20109;-60
2021/09/19 08:39:40;;;;;;;1.45;0.80;;;;;;;28.63;39.96;101203.09;4999683;28;20026;-60
2021/09/19 08:42:06;;;;;;;0.75;0.75;;;;;;;28.81;40.94;101214.84;4999615;28;20426;-60
2021/09/19 08:44:31;;;;;;;0.70;0.70;;;;;;;28.65;40.53;101203.69;5015799;28;20022;-59
2021/09/19 08:46:58;;;;;;;1.75;0.82;;;;;;;28.47;40.62;101209.28;5018439;28;20033;-59
2021/09/19 08:49:23;;;;;;;1.92;0.80;;;;;;;28.35;40.14;101205.66;5017865;28;20025;-60
2021/09/19 08:51:49;;;;;;;0.70;0.70;;;;;;;28.35;40.74;101208.41;5018241;28;20026;-60
2021/09/19 08:54:15;;;;;;;1.10;0.90;;;;;;;28.48;39.94;101205.44;5016830;28;20128;-60
2021/09/19 08:56:40;;;;;;;0.75;0.60;;;;;;;28.78;40.08;101200.72;5016890;28;20105;-60
2021/09/19 08:59:05;;;;;;;0.90;0.73;;;;;;;29.01;40.03;101210.91;5008376;28;20153;-59
2021/09/19 09:01:31;;;;;;;5.97;0.60;;;;;;;29.11;39.03;101200.94;4982544;28;20053;-59
2021/09/19 09:04:04;;;;;;;2.38;1.00;;;;;;;29.32;38.56;101202.25;4999423;28;20088;-60
2021/09/19 09:06:36;;;;;;;5.25;0.60;;;;;;;29.45;39.13;101208.31;4997092;28;20499;-59
2021/09/19 09:09:16;;;;;;;0.93;0.50;;;;;;;29.62;38.95;101193.78;4997602;28;20026;-59
2021/09/19 09:11:43;;;;;;;2.63;0.65;;;;;;;29.80;38.32;101204.66;4997868;28;20112;-60
2021/09/19 09:14:08;;;;;;;0.93;0.60;;;;;;;29.97;38.35;101200.84;4998681;28;20463;-59
2021/09/19 09:16:33;;;;;;;2.67;0.65;;;;;;;30.13;38.28;101196.44;4997889;28;20110;-60
2021/09/19 09:18:59;;;;;;;2.47;0.70;;;;;;;30.29;38.33;101195.59;5008639;28;20034;-59
2021/09/19 09:21:30;;;;;;;2.40;0.80;;;;;;;30.46;37.76;101190.97;5017167;28;20030;-60
2021/09/19 09:23:58;;;;;;;2.28;0.77;;;;;;;30.56;37.35;101201.38;5017317;28;20030;-59
2021/09/19 09:26:32;;;;;;;0.88;0.55;;;;;;;30.63;37.28;101198.44;5017438;28;20030;-60
2021/09/19 09:29:13;;;;;;;0.70;0.70;;;;;;;30.58;37.02;101190.88;5016442;28;20032;-59
2021/09/19 09:31:43;;;;;;;1.02;0.52;;;;;;;30.67;36.96;101183.00;5016870;28;20090;-59
2021/09/19 09:34:23;;;;;;;2.55;0.80;;;;;;;31.12;36.99;101197.56;5017197;28;20029;-60
2021/09/19 09:36:58;;;;;;;0.75;0.73;;;;;;;31.60;36.13;101197.63;5017522;28;20112;-61
2021/09/19 09:39:29;;;;;;;0.63;0.63;;;;;;;32.62;34.84;101196.78;5017088;28;20033;-60
2021/09/19 09:42:00;;;;;;;2.40;0.60;;;;;;;33.37;33.79;101188.09;5016846;28;20022;-60
2021/09/19 09:44:33;;;;;;;1.48;0.90;;;;;;;33.13;33.98;101195.19;5004692;28;20057;-59
2021/09/19 09:46:59;;;;;;;;;;;;;;;33.07;35.16;101193.50;4996685;28;20026;-60
2021/09/19 09:49:34;;;;;;;1.50;0.68;;;;;;;33.04;34.56;101199.56;4997198;28;19910;-60
2021/09/19 09:52:06;;;;;;;0.68;0.68;;;;;;;33.25;34.24;101190.28;4997578;28;20037;-61
2021/09/19 09:54:42;;;;;;;0.95;0.70;;;;;;;33.50;33.24;101179.28;4997177;28;20539;-61
2021/09/19 09:57:08;;;;;;;0.73;0.70;;;;;;;33.72;32.73;101181.88;5012359;28;20459;-59
2021/09/19 09:59:34;;;;;;;0.90;0.90;;;;;;;33.64;33.10;101174.88;4997027;28;20030;-60
2021/09/19 10:02:02;;;;;;;0.80;0.52;;;;;;;33.78;33.38;101184.38;4995917;28;20117;-60
2021/09/19 10:04:28;;;;;;;1.73;0.77;;;;;;;33.93;33.70;101176.06;4996016;28;20438;-61
2021/09/19 10:06:54;;;;;;;1.20;0.90;;;;;;;34.19;32.33;101173.34;4996654;28;20034;-60
2021/09/19 10:09:20;;;;;;;1.90;0.80;;;;;;;34.40;31.76;101181.44;4996640;28;20080;-61
2021/09/19 10:11:45;;;;;;;0.98;0.60;;;;;;;34.53;31.76;101177.25;4997143;28;20042;-60
2021/09/19 10:14:10;;;;;;;1.15;0.63;;;;;;;34.64;30.77;101169.75;4996678;28;20022;-60
2021/09/19 10:16:37;;;;;;;0.50;0.50;;;;;;;34.86;31.40;101173.91;5000167;28;20030;-60
2021/09/19 10:19:02;;;;;;;3.00;0.73;;;;;;;34.92;31.12;101170.00;5031567;28;20026;-60
2021/09/19 10:21:31;;;;;;;1.25;0.70;;;;;;;35.09;30.94;101178.06;5016315;28;20033;-60
2021/09/19 10:23:57;;;;;;;2.92;0.73;;;;;;;35.08;31.50;101163.28;5016014;28;20026;-60
2021/09/19 10:26:23;;;;;;;3.28;0.60;;;;;;;35.15;30.86;101171.31;5015065;28;20083;-60
2021/09/19 10:28:52;;;;;;;0.70;0.60;;;;;;;35.31;30.14;101169.34;5016285;28;20394;-60
2021/09/19 10:31:23;;;;;;;1.85;0.60;;;;;;;35.49;30.13;101171.47;5016333;28;20429;-60
2021/09/19 10:33:52;;;;;;;1.40;0.43;;;;;;;35.48;29.44;101170.66;5016351;28;20022;-60
2021/09/19 10:36:22;;;;;;;0.95;0.52;;;;;;;35.48;29.62;101153.94;5015906;28;20482;-61
2021/09/19 10:38:47;;;;;;;0.63;0.52;;;;;;;35.65;29.75;101156.38;5001539;28;20026;-60
2021/09/19 10:41:17;;;;;;;1.33;0.70;;;;;;;35.76;30.20;101157.16;4996607;28;20160;-60
2021/09/19 10:43:56;;;;;;;2.17;0.63;;;;;;;35.77;29.45;101156.84;5005479;28;20033;-60
2021/09/19 10:46:36;;;;;;;0.30;0.30;;;;;;;35.68;29.47;101164.13;5016193;28;20030;-61
2021/09/19 10:49:19;;;;;;;0.75;0.60;;;;;;;35.74;29.19;101164.94;5016363;28;20076;-61
2021/09/19 10:51:59;;;;;;;0.70;0.55;;;;;;;35.73;29.45;101166.94;4996870;28;20349;-60
2021/09/19 10:54:51;;;;;;;0.50;0.50;;;;;;;35.65;29.23;101161.97;4996209;28;20050;-60
2021/09/19 10:57:27;;;;;;;0.50;0.50;;;;;;;35.80;29.05;101167.44;4996338;28;20030;-60
2021/09/19 11:00:07;;;;;;;0.32;0.32;;;;;;;35.84;29.15;101167.69;4999642;28;20390;-60
2021/09/19 11:02:36;;;;;;;1.63;0.50;;;;;;;35.93;29.01;101169.56;5016692;28;20080;-60
2021/09/19 11:05:24;;;;;;;2.40;0.50;;;;;;;36.04;28.79;101162.81;5016825;28;20044;-60
2021/09/19 11:07:51;;;;;;;0.43;0.43;;;;;;;36.03;28.76;101169.53;4980813;28;20026;-60
2021/09/19 11:10:17;;;;;;;0.55;0.47;;;;;;;36.07;28.59;101167.00;4979020;28;20026;-60
2021/09/19 11:12:44;;;;;;;0.30;0.30;;;;;;;36.24;29.00;101166.59;4975756;28;20066;-60
2021/09/19 11:15:17;;;;;;;2.92;0.88;;;;;;;36.43;28.77;101170.34;4985434;28;20025;-61
2021/09/19 11:17:48;;;;;;;0.82;0.52;;;;;;;36.57;28.55;101169.41;5015782;28;20022;-60
2021/09/19 11:20:13;;;;;;;1.53;0.50;;;;;;;36.38;28.43;101181.56;5014339;28;20036;-60
2021/09/19 11:23:20;;;;;;;0.38;0.38;;;;;;;36.42;27.96;101171.47;5016357;28;20542;-60